Time;durP1;ratioP1;P1;durP2;ratioP2;P2;SDS_P1;SDS_P2;PMS_P1;PMS_P2;Temp;Humidity;BMP_temperature;BMP_pressure;BME280_temperature;BME280_humidity;BME280_pressure;Samples;Min_cycle;Max_cycle;Signal;HPM_P1;HPM_P2
2022/11/05 00:09:31;;;;;;;5.87;1.13;;;27.00;99.90;;;;;;5050629;28;20207;-76
2022/11/05 00:17:41;;;;;;;4.43;1.20;;;26.50;99.90;;;;;;5051442;28;20187;-74
2022/11/05 00:26:52;;;;;;;3.87;1.17;;;24.70;99.90;;;;;;5030481;28;20271;-72
2022/11/05 00:29:20;;;;;;;4.73;1.60;;;23.60;99.90;;;;;;5032712;28;20251;-75
2022/11/05 00:31:48;;;;;;;5.47;1.47;;;22.90;99.90;;;;;;5033444;28;20211;-76
2022/11/05 00:34:15;;;;;;;3.27;1.13;;;22.70;99.90;;;;;;5036099;28;20182;-75
2022/11/05 00:36:43;;;;;;;3.67;1.50;;;23.10;99.90;;;;;;5035406;28;20177;-76
2022/11/05 00:39:11;;;;;;;8.37;2.07;;;23.80;99.90;;;;;;5034962;28;20177;-77
2022/11/05 00:41:39;;;;;;;5.23;1.10;;;25.30;99.90;;;;;;5063942;28;20191;-76
2022/11/05 00:49:28;;;;;;;4.83;1.40;;;24.10;99.90;;;;;;5074309;28;20235;-77
2022/11/05 00:49:39;;;;;;;5.80;1.20;;;23.80;99.90;;;;;;5074389;28;20190;-76
2022/11/05 00:54:53;;;;;;;3.90;1.30;;;23.60;99.90;;;;;;5074022;28;20204;-75
2022/11/05 00:57:21;;;;;;;3.70;1.37;;;23.60;99.90;;;;;;5073506;28;20192;-76
2022/11/05 00:59:48;;;;;;;2.60;1.47;;;24.10;99.90;;;;;;5074094;28;20222;-76
2022/11/05 01:02:16;;;;;;;4.67;1.20;;;24.10;99.90;;;;;;5074015;28;20265;-77
2022/11/05 01:04:44;;;;;;;6.43;1.50;;;23.90;99.90;;;;;;5073972;28;20186;-76
2022/11/05 01:07:12;;;;;;;7.30;2.00;;;23.70;99.90;;;;;;5073465;28;20220;-74
2022/11/05 01:09:39;;;;;;;5.13;1.47;;;24.00;99.90;;;;;;5067529;28;20180;-74
2022/11/05 01:12:07;;;;;;;3.97;1.50;;;24.90;99.90;;;;;;5073180;28;20183;-77
2022/11/05 01:14:35;;;;;;;7.60;1.80;;;24.90;99.90;;;;;;5073496;28;20179;-76
2022/11/05 01:17:03;;;;;;;4.80;1.23;;;25.70;99.90;;;;;;5073735;28;20195;-74
2022/11/05 01:19:31;;;;;;;4.43;1.60;;;26.90;99.90;;;;;;5061346;28;20211;-74
2022/11/05 01:21:59;;;;;;;4.53;1.30;;;27.90;99.90;;;;;;5053994;28;20173;-75
2022/11/05 01:24:27;;;;;;;4.00;1.20;;;28.40;98.70;;;;;;5055363;28;20531;-74
2022/11/05 01:26:55;;;;;;;5.07;1.40;;;28.50;96.30;;;;;;5053567;28;20204;-73
2022/11/05 01:29:23;;;;;;;5.23;1.27;;;28.60;96.40;;;;;;5053367;28;20187;-73
2022/11/05 01:31:51;;;;;;;8.37;1.40;;;28.00;98.30;;;;;;5055571;28;20176;-72
2022/11/05 01:34:22;;;;;;;5.60;1.20;;;27.30;99.90;;;;;;5060130;28;20196;-70
2022/11/05 01:36:50;;;;;;;3.27;1.20;;;26.60;99.90;;;;;;5075342;28;20705;-73
2022/11/05 01:39:17;;;;;;;3.87;1.17;;;26.00;99.90;;;;;;5074705;28;20188;-74
2022/11/05 01:41:48;;;;;;;5.83;1.43;;;25.60;99.90;;;;;;5075923;28;20207;-73
2022/11/05 01:44:52;;;;;;;4.73;1.23;;;25.70;99.90;;;;;;5074809;28;20196;-75
2022/11/05 01:47:38;;;;;;;7.27;1.57;;;25.40;99.90;;;;;;5075895;28;20208;-73
2022/11/05 01:50:46;;;;;;;7.07;1.30;;;25.10;99.90;;;;;;5073855;28;20179;-73
2022/11/05 01:53:17;;;;;;;8.17;1.30;;;25.30;99.90;;;;;;5048851;28;20206;-72
2022/11/05 01:56:03;;;;;;;5.33;1.63;;;25.90;99.90;;;;;;5070899;28;20180;-68
2022/11/05 01:58:48;;;;;;;4.33;1.27;;;26.80;99.90;;;;;;5074020;28;20195;-72
2022/11/05 02:01:18;;;;;;;7.23;1.30;;;27.60;99.90;;;;;;5089265;28;20250;-73
2022/11/05 02:03:48;;;;;;;6.83;1.53;;;27.20;99.90;;;;;;5074832;28;20641;-70
2022/11/05 02:06:17;;;;;;;8.73;1.63;;;26.40;99.90;;;;;;5076237;28;20547;-73
2022/11/05 02:09:06;;;;;;;4.40;1.33;;;25.60;99.90;;;;;;5056265;28;20242;-76
2022/11/05 02:11:34;;;;;;;5.63;1.40;;;25.10;99.90;;;;;;5056218;28;20187;-76
2022/11/05 02:14:02;;;;;;;5.07;1.50;;;24.60;99.90;;;;;;5057162;28;20181;-76
2022/11/05 02:16:39;;;;;;;4.87;1.10;;;24.30;99.90;;;;;;5055990;28;20207;-71
2022/11/05 02:19:27;;;;;;;4.57;1.10;;;24.10;99.90;;;;;;5075508;28;20214;-75
2022/11/05 02:22:19;;;;;;;7.40;1.50;;;24.20;99.90;;;;;;5084040;28;20202;-76
2022/11/05 02:25:15;;;;;;;5.67;1.57;;;24.20;99.90;;;;;;5047938;28;20716;-75
2022/11/05 02:28:18;;;;;;;6.20;1.70;;;24.00;99.90;;;;;;5091049;28;20218;-73
2022/11/05 02:30:55;;;;;;;3.60;1.20;;;23.70;99.90;;;;;;5074602;28;21017;-72
2022/11/05 02:33:55;;;;;;;5.60;1.80;;;23.60;99.90;;;;;;5074383;28;20266;-74
2022/11/05 02:36:41;;;;;;;6.67;1.50;;;23.70;99.90;;;;;;5090859;28;20183;-74
2022/11/05 02:39:39;;;;;;;4.70;1.53;;;23.90;99.90;;;;;;5067919;28;20231;-73
2022/11/05 02:42:20;;;;;;;6.93;1.57;;;23.90;99.90;;;;;;5074080;28;20808;-69
2022/11/05 02:45:16;;;;;;;5.93;1.80;;;23.70;99.90;;;;;;5089019;28;20233;-75
2022/11/05 02:47:58;;;;;;;2.53;1.43;;;23.70;99.90;;;;;;5076291;28;20213;-72
2022/11/05 02:50:54;;;;;;;6.60;1.90;;;23.30;99.90;;;;;;5077168;28;20558;-74
2022/11/05 02:53:34;;;;;;;4.00;1.47;;;23.30;99.90;;;;;;5091340;28;20231;-73
2022/11/05 02:56:29;;;;;;;5.77;1.77;;;23.50;99.90;;;;;;5075482;28;20225;-74
2022/11/05 02:58:57;;;;;;;5.43;1.80;;;23.60;99.90;;;;;;5037852;28;20177;-72
2022/11/05 03:01:25;;;;;;;7.13;1.50;;;23.30;99.90;;;;;;5054520;28;20261;-72
2022/11/05 03:04:00;;;;;;;4.90;1.33;;;23.30;99.90;;;;;;5092180;28;20256;-71
2022/11/05 03:06:46;;;;;;;6.80;1.80;;;23.30;99.90;;;;;;5077310;28;20191;-74
2022/11/05 03:09:27;;;;;;;7.90;1.63;;;23.30;99.90;;;;;;5073507;28;20187;-73
2022/11/05 03:12:20;;;;;;;4.37;1.33;;;23.10;99.90;;;;;;5073020;28;20198;-69
2022/11/05 03:15:01;;;;;;;6.83;1.40;;;22.90;99.90;;;;;;5056313;28;20198;-72
2022/11/05 03:17:32;;;;;;;4.40;1.60;;;22.90;99.90;;;;;;5073157;28;20184;-74
2022/11/05 03:20:32;;;;;;;5.13;1.57;;;23.10;99.90;;;;;;5074047;28;20257;-71
2022/11/05 03:23:19;;;;;;;4.40;1.40;;;23.30;99.90;;;;;;5070816;28;20186;-70
2022/11/05 03:25:58;;;;;;;8.27;1.90;;;23.70;99.90;;;;;;5035680;28;20172;-72
2022/11/05 03:28:31;;;;;;;4.67;1.33;;;23.90;99.90;;;;;;5088738;28;20707;-74
2022/11/05 03:31:00;;;;;;;5.07;1.83;;;24.20;99.90;;;;;;5088652;28;20272;-71
2022/11/05 03:33:33;;;;;;;8.87;1.40;;;24.20;99.90;;;;;;5073762;28;20179;-74
2022/11/05 03:36:06;;;;;;;5.03;1.57;;;23.90;99.90;;;;;;5071701;28;20660;-74
2022/11/05 03:38:40;;;;;;;4.73;1.47;;;23.80;99.90;;;;;;5080809;28;20711;-71
2022/11/05 03:41:11;;;;;;;6.27;1.47;;;23.60;99.90;;;;;;5071237;28;20175;-71
2022/11/05 03:43:45;;;;;;;6.63;2.10;;;23.60;99.90;;;;;;5071539;28;20187;-71
2022/11/05 03:46:33;;;;;;;18.50;2.67;;;23.40;99.90;;;;;;5073513;28;20551;-70
2022/11/05 03:49:05;;;;;;;6.03;2.07;;;23.20;99.90;;;;;;5075212;28;20200;-71
2022/11/05 03:51:39;;;;;;;9.10;2.00;;;23.30;99.90;;;;;;5092018;28;20183;-69
2022/11/05 03:54:07;;;;;;;9.20;2.17;;;23.50;99.90;;;;;;5091024;28;20191;-75
2022/11/05 03:57:02;;;;;;;4.10;1.73;;;24.00;99.90;;;;;;5077070;28;20215;-72
2022/11/05 03:59:31;;;;;;;6.37;1.90;;;24.80;99.90;;;;;;5074496;28;20528;-69
2022/11/05 04:02:01;;;;;;;7.50;2.33;;;24.90;99.90;;;;;;5075219;28;20248;-73
2022/11/05 04:04:29;;;;;;;4.90;1.60;;;24.80;99.90;;;;;;5075954;28;20188;-70
2022/11/05 04:15:14;;;;;;;9.33;2.37;;;24.60;99.90;;;;;;5080813;28;20253;-70
2022/11/05 04:17:42;;;;;;;4.57;2.10;;;24.70;99.90;;;;;;5084215;28;20327;-68
2022/11/05 04:25:50;;;;;;;3.37;1.73;;;23.40;99.90;;;;;;5085983;28;20204;-73
2022/11/05 04:30:17;;;;;;;9.90;2.33;;;23.50;99.90;;;;;;5085449;28;20218;-73
2022/11/05 04:31:09;;;;;;;4.10;1.97;;;23.40;99.90;;;;;;5049323;28;20165;-70
2022/11/05 04:33:36;;;;;;;3.97;1.67;;;23.60;99.90;;;;;;5083879;28;20185;-73
2022/11/05 04:36:04;;;;;;;7.53;1.90;;;24.10;99.90;;;;;;5084466;28;20218;-74
2022/11/05 04:38:32;;;;;;;8.20;1.70;;;24.20;99.90;;;;;;5084390;28;20175;-72
2022/11/05 04:41:13;;;;;;;6.47;2.03;;;24.10;99.90;;;;;;5083282;28;20227;-70
2022/11/05 04:43:41;;;;;;;5.67;1.63;;;24.30;99.90;;;;;;5063622;28;20190;-72
2022/11/05 04:46:11;;;;;;;4.30;1.97;;;24.20;99.90;;;;;;5082971;28;20172;-76
2022/11/05 04:48:39;;;;;;;7.03;1.57;;;24.30;99.90;;;;;;5082592;28;20225;-73
2022/11/05 04:51:07;;;;;;;5.10;1.40;;;24.50;99.90;;;;;;5079337;28;20648;-74
2022/11/05 04:53:35;;;;;;;7.23;1.60;;;24.40;99.90;;;;;;5077121;28;20185;-74
2022/11/05 04:56:22;;;;;;;5.70;1.47;;;24.60;99.90;;;;;;5075385;28;20654;-75
2022/11/05 04:58:50;;;;;;;5.63;1.50;;;24.80;99.90;;;;;;5075355;28;20194;-73
2022/11/05 05:01:20;;;;;;;6.77;1.80;;;24.60;99.90;;;;;;5079743;28;20237;-75
2022/11/05 05:03:50;;;;;;;4.07;1.50;;;24.60;99.90;;;;;;5080827;28;20637;-72
2022/11/05 05:06:19;;;;;;;4.03;1.43;;;24.60;99.90;;;;;;5082527;28;20186;-76
2022/11/05 05:08:51;;;;;;;3.17;1.30;;;24.40;99.90;;;;;;5081193;28;20214;-76
2022/11/05 05:11:21;;;;;;;8.83;1.70;;;24.40;99.90;;;;;;5053239;28;20206;-74
2022/11/05 05:13:49;;;;;;;7.90;1.20;;;24.30;99.90;;;;;;5080111;28;20241;-76
2022/11/05 05:16:26;;;;;;;2.90;1.10;;;24.40;99.90;;;;;;5081756;28;20183;-76
2022/11/05 05:18:54;;;;;;;6.60;1.30;;;24.50;99.90;;;;;;5081184;28;20189;-71
2022/11/05 05:21:41;;;;;;;4.67;1.23;;;24.60;99.90;;;;;;5078653;28;20200;-73
2022/11/05 05:24:18;;;;;;;4.20;1.50;;;24.60;99.90;;;;;;5081196;28;20243;-73
2022/11/05 05:26:48;;;;;;;3.67;1.33;;;24.40;99.90;;;;;;5078953;28;20187;-73
2022/11/05 05:29:17;;;;;;;8.10;1.40;;;24.10;99.90;;;;;;5078424;28;20192;-75
2022/11/05 05:31:45;;;;;;;3.90;1.10;;;24.20;99.90;;;;;;5078175;28;20208;-76
2022/11/05 05:34:15;;;;;;;5.63;1.60;;;24.30;99.90;;;;;;5077509;28;20184;-76
2022/11/05 05:36:43;;;;;;;4.30;1.10;;;24.20;99.90;;;;;;5092252;28;20191;-76
2022/11/05 05:39:10;;;;;;;3.47;1.47;;;24.20;99.90;;;;;;5078263;28;20201;-75
2022/11/05 05:41:38;;;;;;;4.63;1.10;;;24.00;99.90;;;;;;5063132;28;20223;-74
2022/11/05 05:44:07;;;;;;;4.17;1.50;;;24.30;99.90;;;;;;5076369;28;20658;-75
2022/11/05 05:46:35;;;;;;;3.63;1.30;;;24.20;99.90;;;;;;5081911;28;20176;-76
2022/11/05 05:49:02;;;;;;;3.60;1.70;;;24.10;99.90;;;;;;5079214;28;20233;-75
2022/11/05 05:51:30;;;;;;;6.13;1.33;;;24.20;99.90;;;;;;5077861;28;20656;-76
2022/11/05 05:53:58;;;;;;;7.80;1.50;;;24.10;99.90;;;;;;5078322;28;20180;-74
2022/11/05 05:56:26;;;;;;;7.90;1.40;;;23.90;99.90;;;;;;5077894;28;20543;-76
2022/11/05 05:58:57;;;;;;;4.57;1.30;;;23.80;99.90;;;;;;5077714;28;20187;-76
2022/11/05 06:01:25;;;;;;;5.47;1.20;;;23.70;99.90;;;;;;5077683;28;20238;-76
2022/11/05 06:03:52;;;;;;;7.10;1.30;;;23.60;99.90;;;;;;5077868;28;20276;-75
2022/11/05 06:06:21;;;;;;;8.03;1.40;;;23.70;99.90;;;;;;5078260;28;20637;-74
2022/11/05 06:08:49;;;;;;;5.90;1.30;;;23.60;99.90;;;;;;5079607;28;20223;-75
2022/11/05 06:11:17;;;;;;;4.27;1.20;;;23.70;99.90;;;;;;5080624;28;20712;-71
2022/11/05 06:13:44;;;;;;;10.83;1.30;;;23.50;99.90;;;;;;5079572;28;20230;-73
2022/11/05 06:16:12;;;;;;;4.83;1.20;;;23.50;99.90;;;;;;5076978;28;20629;-72
2022/11/05 06:18:42;;;;;;;5.43;1.40;;;23.50;99.90;;;;;;5079662;28;20203;-74
2022/11/05 06:21:12;;;;;;;8.10;1.90;;;23.30;99.90;;;;;;5077375;28;20205;-75
2022/11/05 06:23:41;;;;;;;6.13;1.10;;;23.40;99.90;;;;;;5077437;28;20186;-74
2022/11/05 06:26:12;;;;;;;6.50;1.23;;;23.10;99.90;;;;;;5080365;28;20526;-76
2022/11/05 06:28:41;;;;;;;4.33;0.90;;;23.20;99.90;;;;;;5078182;28;20262;-76
2022/11/05 06:31:09;;;;;;;5.37;1.10;;;23.10;99.90;;;;;;5075974;28;20172;-74
2022/11/05 06:33:38;;;;;;;7.43;1.20;;;22.90;99.90;;;;;;5076959;28;20196;-76
2022/11/05 06:36:06;;;;;;;3.87;0.93;;;23.00;99.90;;;;;;5078400;28;20187;-75
2022/11/05 06:38:36;;;;;;;3.57;0.97;;;23.10;99.90;;;;;;5094226;28;20240;-73
2022/11/05 06:41:05;;;;;;;4.00;1.07;;;23.10;99.90;;;;;;5075817;28;20172;-73
2022/11/05 06:43:35;;;;;;;3.30;1.07;;;22.80;99.90;;;;;;5077745;28;20164;-75
2022/11/05 06:46:03;;;;;;;6.17;1.20;;;22.80;99.90;;;;;;5094314;28;20192;-76
2022/11/05 06:48:35;;;;;;;5.00;1.07;;;22.80;99.90;;;;;;5073476;28;20223;-73
2022/11/05 06:51:04;;;;;;;3.67;1.17;;;22.70;99.90;;;;;;5073775;28;20591;-76
2022/11/05 06:53:31;;;;;;;2.80;1.00;;;22.90;99.90;;;;;;5076098;28;20168;-70
2022/11/05 06:56:03;;;;;;;3.07;1.03;;;22.80;99.90;;;;;;5074810;28;20540;-76
2022/11/05 06:58:32;;;;;;;5.30;0.97;;;22.70;99.90;;;;;;5090742;28;20256;-69
2022/11/05 07:01:07;;;;;;;3.47;1.17;;;22.40;99.90;;;;;;5075089;28;20230;-74
2022/11/05 07:03:38;;;;;;;6.87;1.17;;;22.00;99.90;;;;;;5093964;28;20194;-68
2022/11/05 07:06:07;;;;;;;4.90;1.20;;;21.70;99.90;;;;;;5075584;28;20184;-74
2022/11/05 07:08:37;;;;;;;6.23;1.03;;;21.50;99.90;;;;;;5091602;28;20783;-72
2022/11/05 07:11:05;;;;;;;5.83;0.97;;;21.50;99.90;;;;;;5073709;28;20172;-73
2022/11/05 07:13:32;;;;;;;5.67;1.17;;;21.60;99.90;;;;;;5073595;28;20182;-75
2022/11/05 07:16:00;;;;;;;4.83;1.20;;;21.70;99.90;;;;;;5079260;28;20306;-74
2022/11/05 07:18:29;;;;;;;5.60;1.20;;;21.70;99.90;;;;;;5077659;28;20186;-75
2022/11/05 07:20:58;;;;;;;5.30;1.23;;;21.90;99.90;;;;;;5078225;28;20588;-74
2022/11/05 07:23:26;;;;;;;4.23;1.13;;;21.80;99.90;;;;;;5079002;28;20167;-73
2022/11/05 07:25:54;;;;;;;4.47;0.93;;;21.90;99.90;;;;;;5076347;28;20245;-71
2022/11/05 07:28:21;;;;;;;5.53;1.20;;;21.70;99.90;;;;;;5073441;28;20235;-73
2022/11/05 07:30:49;;;;;;;3.73;1.07;;;21.60;99.90;;;;;;5074313;28;20614;-69
2022/11/05 07:33:17;;;;;;;11.77;1.87;;;21.50;99.90;;;;;;5073916;28;20261;-71
2022/11/05 07:35:45;;;;;;;5.27;1.00;;;21.30;99.90;;;;;;5072122;28;20180;-72
2022/11/05 07:38:13;;;;;;;4.23;1.20;;;21.30;99.90;;;;;;5053452;28;20195;-72
2022/11/05 07:40:43;;;;;;;3.70;1.00;;;21.20;99.90;;;;;;5053171;28;20196;-73
2022/11/05 07:43:11;;;;;;;7.27;1.40;;;21.20;99.90;;;;;;5056154;28;20713;-72
2022/11/05 07:45:38;;;;;;;3.73;1.20;;;21.10;99.90;;;;;;5058326;28;20180;-70
2022/11/05 07:48:06;;;;;;;6.40;1.47;;;21.00;99.90;;;;;;5057388;28;20211;-70
2022/11/05 07:50:35;;;;;;;2.67;1.10;;;20.90;99.90;;;;;;5057143;28;20184;-72
2022/11/05 07:53:13;;;;;;;2.23;0.90;;;20.70;99.90;;;;;;5056742;28;20549;-69
2022/11/05 07:55:42;;;;;;;4.00;1.03;;;20.50;99.90;;;;;;5056309;28;20287;-70
2022/11/05 07:58:10;;;;;;;3.93;1.27;;;20.40;99.90;;;;;;5038879;28;20195;-73
2022/11/05 08:00:37;;;;;;;7.27;1.20;;;20.30;99.90;;;;;;5056764;28;20212;-71
2022/11/05 08:03:17;;;;;;;8.00;1.20;;;20.10;99.90;;;;;;5056560;28;20272;-70
2022/11/05 08:05:46;;;;;;;9.40;1.20;;;20.00;99.90;;;;;;5056671;28;20195;-74
2022/11/05 08:08:20;;;;;;;2.60;0.97;;;19.90;99.90;;;;;;5056924;28;20212;-76
2022/11/05 08:10:48;;;;;;;6.57;1.67;;;19.80;99.90;;;;;;5056018;28;20184;-72
2022/11/05 08:13:15;;;;;;;7.13;1.27;;;19.70;99.90;;;;;;5057019;28;20177;-72
2022/11/05 08:15:43;;;;;;;3.33;1.20;;;19.60;99.90;;;;;;5057423;28;20185;-70
2022/11/05 08:18:16;;;;;;;6.07;1.20;;;19.60;99.90;;;;;;5057481;28;20191;-71
2022/11/05 08:20:45;;;;;;;2.73;1.10;;;19.50;99.90;;;;;;5056284;28;20173;-72
2022/11/05 08:23:12;;;;;;;10.83;1.97;;;19.40;99.90;;;;;;5056443;28;20268;-68
2022/11/05 08:25:40;;;;;;;12.50;8.10;;;19.40;99.90;;;;;;5056981;28;20172;-70
2022/11/05 08:28:11;;;;;;;18.43;10.80;;;19.30;99.90;;;;;;5057210;28;20220;-68
2022/11/05 08:30:39;;;;;;;18.93;11.07;;;19.20;99.90;;;;;;5057446;28;20191;-70
2022/11/05 08:33:09;;;;;;;19.03;11.40;;;19.20;99.90;;;;;;5056865;28;20172;-74
2022/11/05 08:35:38;;;;;;;14.07;7.17;;;19.10;99.90;;;;;;5057000;28;20179;-71
2022/11/05 08:38:07;;;;;;;13.83;7.07;;;19.00;99.90;;;;;;5057669;28;20181;-73
2022/11/05 08:40:36;;;;;;;11.00;6.60;;;19.00;99.90;;;;;;5057425;28;20177;-76
2022/11/05 08:43:06;;;;;;;12.60;6.10;;;18.90;99.90;;;;;;5057448;28;20195;-71
2022/11/05 08:45:37;;;;;;;8.77;4.87;;;18.90;99.90;;;;;;5059630;28;20222;-76
2022/11/05 08:48:11;;;;;;;9.93;5.63;;;18.90;99.90;;;;;;5057511;28;20231;-76
2022/11/05 08:50:39;;;;;;;9.43;4.00;;;18.80;99.90;;;;;;5056271;28;20189;-73
2022/11/05 08:53:09;;;;;;;9.07;3.10;;;18.70;99.90;;;;;;5050614;28;20187;-70
2022/11/05 08:55:37;;;;;;;8.73;2.10;;;18.70;99.90;;;;;;5056108;28;20181;-73
2022/11/05 08:58:10;;;;;;;7.13;1.30;;;18.60;99.90;;;;;;5056794;28;20572;-71
2022/11/05 09:00:38;;;;;;;4.03;1.33;;;18.60;99.90;;;;;;5057674;28;20177;-72
2022/11/05 09:03:09;;;;;;;5.03;1.30;;;18.50;99.90;;;;;;5058708;28;20311;-72
2022/11/05 09:05:39;;;;;;;4.40;1.27;;;18.50;99.90;;;;;;5056313;28;20184;-74
2022/11/05 09:08:08;;;;;;;6.07;1.20;;;18.50;99.90;;;;;;5057284;28;20215;-74
2022/11/05 09:10:37;;;;;;;3.53;1.10;;;18.50;99.90;;;;;;5057881;28;20177;-74
2022/11/05 09:13:05;;;;;;;7.80;2.37;;;18.40;99.90;;;;;;5058101;28;20212;-73
2022/11/05 09:15:34;;;;;;;8.80;3.13;;;18.40;99.90;;;;;;5057241;28;20235;-74
2022/11/05 09:18:04;;;;;;;6.93;3.00;;;18.40;99.90;;;;;;5060323;28;20193;-73
2022/11/05 09:20:32;;;;;;;11.27;4.80;;;18.30;99.90;;;;;;5059713;28;20183;-74
2022/11/05 09:22:59;;;;;;;15.43;4.73;;;18.30;99.90;;;;;;5060954;28;20181;-74
2022/11/05 09:25:27;;;;;;;7.80;4.43;;;18.30;99.90;;;;;;5057269;28;20529;-74
2022/11/05 09:28:04;;;;;;;8.73;4.53;;;18.20;99.90;;;;;;5057706;28;20213;-70
2022/11/05 09:30:32;;;;;;;8.60;5.60;;;18.20;99.90;;;;;;5057305;28;20176;-74
2022/11/05 09:32:59;;;;;;;12.10;5.67;;;18.10;99.90;;;;;;5056355;28;20189;-74
2022/11/05 09:35:28;;;;;;;10.53;6.10;;;18.10;99.90;;;;;;5056814;28;20184;-74
2022/11/05 09:37:55;;;;;;;12.13;7.87;;;18.00;99.90;;;;;;5042763;28;20212;-74
2022/11/05 09:40:25;;;;;;;17.67;8.83;;;17.90;99.90;;;;;;5059696;28;20180;-76
2022/11/05 09:42:53;;;;;;;14.47;8.60;;;18.00;99.90;;;;;;5055961;28;20187;-75
2022/11/05 09:45:23;;;;;;;17.57;11.47;;;18.00;99.90;;;;;;5056612;28;20184;-73
2022/11/05 09:48:00;;;;;;;16.60;10.43;;;17.90;99.90;;;;;;5065402;28;20219;-75
2022/11/05 09:50:52;;;;;;;16.77;11.40;;;17.90;99.90;;;;;;5036906;28;20221;-74
2022/11/05 09:53:22;;;;;;;20.93;12.13;;;17.90;99.90;;;;;;5036257;28;20201;-74
2022/11/05 09:55:54;;;;;;;21.07;11.77;;;17.80;99.90;;;;;;5035780;28;20556;-74
2022/11/05 09:58:42;;;;;;;18.13;11.33;;;17.80;99.90;;;;;;5036187;28;20216;-74
2022/11/05 10:01:21;;;;;;;21.83;13.07;;;17.70;99.90;;;;;;5047600;28;20232;-72
2022/11/05 10:03:51;;;;;;;25.40;12.77;;;17.70;99.90;;;;;;5056215;28;20165;-74
2022/11/05 10:06:22;;;;;;;22.77;12.67;;;17.60;99.90;;;;;;5071325;28;20566;-73
2022/11/05 10:09:24;;;;;;;21.20;12.97;;;17.60;99.90;;;;;;5054729;28;20661;-73
2022/11/05 10:12:04;;;;;;;22.83;13.63;;;17.50;99.90;;;;;;5054355;28;20278;-72
2022/11/05 10:15:02;;;;;;;24.13;15.00;;;17.40;99.90;;;;;;5055931;28;20270;-74
2022/11/05 10:17:31;;;;;;;23.23;14.17;;;17.30;99.90;;;;;;5055710;28;20187;-74
2022/11/05 10:20:19;;;;;;;22.67;14.70;;;17.30;99.90;;;;;;5055655;28;20234;-74
2022/11/05 10:22:48;;;;;;;23.37;14.23;;;17.10;99.90;;;;;;5055530;28;20172;-74
2022/11/05 10:25:19;;;;;;;25.73;16.40;;;17.00;99.90;;;;;;5054835;28;20242;-73
2022/11/05 10:27:54;;;;;;;27.43;15.73;;;16.90;99.90;;;;;;5054975;28;20207;-74
2022/11/05 10:30:22;;;;;;;25.27;15.37;;;16.80;99.90;;;;;;5055096;28;20222;-74
2022/11/05 10:32:54;;;;;;;28.67;14.97;;;16.70;99.90;;;;;;5055198;28;20684;-73
2022/11/05 10:35:24;;;;;;;22.97;14.33;;;16.60;99.90;;;;;;5054754;28;20177;-74
2022/11/05 10:37:54;;;;;;;21.17;13.93;;;16.60;99.90;;;;;;5053393;28;20176;-71
2022/11/05 10:40:48;;;;;;;23.90;14.77;;;16.50;99.90;;;;;;5054359;28;20184;-74
2022/11/05 10:43:37;;;;;;;21.30;14.40;;;16.30;99.90;;;;;;5055576;28;20191;-73
2022/11/05 10:46:26;;;;;;;25.90;15.33;;;16.20;99.90;;;;;;5055877;28;20183;-73
2022/11/05 10:49:19;;;;;;;23.47;14.60;;;16.20;99.90;;;;;;5055328;28;20204;-73
2022/11/05 10:51:51;;;;;;;24.83;14.93;;;16.10;99.90;;;;;;5055430;28;20179;-75
2022/11/05 10:54:23;;;;;;;26.93;15.23;;;16.00;99.90;;;;;;5055434;28;20259;-73
2022/11/05 10:56:51;;;;;;;24.70;15.73;;;15.90;99.90;;;;;;5055184;28;20168;-74
2022/11/05 10:59:27;;;;;;;24.17;15.80;;;15.80;99.90;;;;;;5053945;28;20227;-71
2022/11/05 11:02:16;;;;;;;25.20;15.50;;;15.80;99.90;;;;;;5054834;28;20220;-74
2022/11/05 11:04:50;;;;;;;34.97;16.63;;;15.80;99.90;;;;;;5055520;28;20270;-73
2022/11/05 11:07:24;;;;;;;21.27;14.17;;;15.80;99.90;;;;;;5055839;28;20230;-74
2022/11/05 11:09:53;;;;;;;23.13;14.93;;;15.90;99.90;;;;;;5055370;28;20668;-72
2022/11/05 11:12:24;;;;;;;26.10;16.47;;;15.90;99.90;;;;;;5054763;28;20906;-74
2022/11/05 11:15:14;;;;;;;28.93;16.97;;;15.90;99.90;;;;;;5054288;28;20184;-74
2022/11/05 11:17:42;;;;;;;26.43;17.30;;;15.80;99.90;;;;;;5053365;28;20189;-72
2022/11/05 11:20:29;;;;;;;28.07;16.93;;;15.70;99.90;;;;;;5061579;28;20176;-68
2022/11/05 11:23:13;;;;;;;27.87;17.93;;;15.70;99.90;;;;;;5066681;28;20556;-74
2022/11/05 11:25:51;;;;;;;32.80;19.97;;;15.50;99.90;;;;;;5074982;28;20179;-73
2022/11/05 11:28:28;;;;;;;31.27;21.63;;;15.50;99.90;;;;;;5074583;28;20216;-74
2022/11/05 11:31:14;;;;;;;30.37;19.47;;;15.40;99.90;;;;;;5075268;28;20516;-74
2022/11/05 11:33:45;;;;;;;30.07;20.90;;;15.40;99.90;;;;;;5075137;28;20176;-71
2022/11/05 11:36:16;;;;;;;35.83;22.27;;;15.30;99.90;;;;;;5075206;28;20262;-70
2022/11/05 11:38:45;;;;;;;47.53;23.37;;;15.30;99.90;;;;;;5074794;28;20223;-71
2022/11/05 11:41:38;;;;;;;37.23;23.43;;;15.20;99.90;;;;;;5073546;28;20561;-70
2022/11/05 11:44:20;;;;;;;38.83;24.00;;;15.20;99.90;;;;;;5073953;28;20184;-70
2022/11/05 11:46:54;;;;;;;34.03;22.93;;;15.20;99.90;;;;;;5073969;28;20176;-69
2022/11/05 11:49:53;;;;;;;33.63;22.77;;;15.10;99.90;;;;;;5074053;28;20191;-72
2022/11/05 11:52:36;;;;;;;35.33;22.23;;;15.10;99.90;;;;;;5073370;28;20179;-71
2022/11/05 11:55:12;;;;;;;32.83;21.43;;;15.00;99.90;;;;;;5073996;28;20178;-71
2022/11/05 11:57:52;;;;;;;29.67;20.83;;;15.00;99.90;;;;;;5074318;28;20183;-69
2022/11/05 12:00:25;;;;;;;34.47;21.17;;;14.90;99.90;;;;;;5074541;28;20180;-72
2022/11/05 12:03:04;;;;;;;35.80;23.30;;;14.90;99.90;;;;;;5074306;28;20601;-74
2022/11/05 12:05:54;;;;;;;32.77;21.43;;;14.90;99.90;;;;;;5074031;28;20175;-72
2022/11/05 12:08:45;;;;;;;32.43;21.83;;;14.80;99.90;;;;;;5088869;28;20268;-70
2022/11/05 12:11:28;;;;;;;35.30;21.67;;;14.70;99.90;;;;;;5073447;28;20221;-70
2022/11/05 12:14:03;;;;;;;32.70;22.57;;;14.70;99.90;;;;;;5071607;28;20220;-74
2022/11/05 12:16:50;;;;;;;32.23;22.10;;;14.70;99.90;;;;;;5071431;28;20696;-71
2022/11/05 12:19:21;;;;;;;38.43;23.87;;;14.70;99.90;;;;;;5070904;28;20203;-72
2022/11/05 12:22:04;;;;;;;32.93;23.00;;;14.70;99.90;;;;;;5071290;28;20314;-72
2022/11/05 12:25:01;;;;;;;35.10;23.47;;;14.60;99.90;;;;;;5071047;28;20263;-74
2022/11/05 12:27:47;;;;;;;33.27;24.63;;;14.50;99.90;;;;;;5071375;28;20204;-74
2022/11/05 12:30:16;;;;;;;40.83;24.93;;;14.50;99.90;;;;;;5074860;28;20235;-72
2022/11/05 12:33:00;;;;;;;38.57;25.67;;;14.50;99.90;;;;;;5074828;28;20263;-72
2022/11/05 12:36:01;;;;;;;40.33;27.77;;;14.50;99.90;;;;;;5074650;28;20195;-71
2022/11/05 12:38:48;;;;;;;38.47;25.90;;;14.50;99.90;;;;;;5074611;28;20557;-73
2022/11/05 12:41:28;;;;;;;39.43;25.33;;;14.40;99.90;;;;;;5077284;28;20200;-70
2022/11/05 12:44:02;;;;;;;37.43;26.77;;;14.40;99.90;;;;;;5034935;28;20553;-70
2022/11/05 12:46:41;;;;;;;39.67;27.63;;;14.40;99.90;;;;;;5034593;28;20670;-73
2022/11/05 12:49:21;;;;;;;45.43;30.23;;;14.40;99.90;;;;;;5034467;28;20820;-72
2022/11/05 12:52:01;;;;;;;33.63;26.50;;;14.40;99.90;;;;;;5034334;28;20184;-71
2022/11/05 12:54:57;;;;;;;39.27;28.00;;;14.30;99.90;;;;;;5034587;28;20180;-74
2022/11/05 12:57:27;;;;;;;42.23;28.00;;;14.30;99.90;;;;;;5056908;28;20191;-73
2022/11/05 13:00:05;;;;;;;43.17;29.70;;;14.30;99.90;;;;;;5070151;28;20188;-73
2022/11/05 13:02:48;;;;;;;38.67;28.03;;;14.20;99.90;;;;;;5061523;28;20219;-71
2022/11/05 13:05:17;;;;;;;41.70;29.23;;;14.20;99.90;;;;;;5075382;28;20207;-70
2022/11/05 13:07:57;;;;;;;40.77;27.47;;;14.20;99.90;;;;;;5075487;28;20309;-73
2022/11/05 13:10:39;;;;;;;41.43;28.00;;;14.20;99.90;;;;;;5075171;28;20192;-72
2022/11/05 13:13:28;;;;;;;39.57;28.70;;;14.20;99.90;;;;;;5075408;28;20597;-74
2022/11/05 13:16:04;;;;;;;39.60;27.23;;;14.20;99.90;;;;;;5091208;28;20179;-75
2022/11/05 13:18:55;;;;;;;39.40;27.63;;;14.10;99.90;;;;;;5075433;28;20242;-74
2022/11/05 13:21:28;;;;;;;38.70;26.80;;;14.00;99.90;;;;;;5075841;28;20205;-73
2022/11/05 13:24:12;;;;;;;38.67;26.07;;;14.00;99.90;;;;;;5075820;28;20182;-74
2022/11/05 13:26:39;;;;;;;36.13;25.83;;;14.00;99.90;;;;;;5075341;28;20343;-75
2022/11/05 13:29:31;;;;;;;37.00;27.10;;;14.00;99.90;;;;;;5075199;28;20617;-72
2022/11/05 13:32:13;;;;;;;38.93;27.10;;;13.90;99.90;;;;;;5075665;28;20172;-71
2022/11/05 13:34:41;;;;;;;38.73;26.40;;;13.90;99.90;;;;;;5075180;28;20182;-74
2022/11/05 13:40:00;;;;;;;38.50;26.93;;;13.80;99.90;;;;;;5074258;28;20230;-73
2022/11/05 13:42:45;;;;;;;34.03;25.07;;;13.80;99.90;;;;;;5035059;28;20188;-70
2022/11/05 13:45:59;;;;;;;33.27;24.83;;;13.70;99.90;;;;;;5035118;28;20216;-73
2022/11/05 13:48:33;;;;;;;37.33;25.97;;;13.70;99.90;;;;;;5061463;28;20238;-72
2022/11/05 13:51:13;;;;;;;36.03;27.13;;;13.60;99.90;;;;;;5074557;28;20195;-72
2022/11/05 13:53:44;;;;;;;38.40;26.30;;;13.60;99.90;;;;;;5074672;28;20186;-73
2022/11/05 13:56:32;;;;;;;39.33;26.40;;;13.60;99.90;;;;;;5074663;28;20198;-72
2022/11/05 13:59:19;;;;;;;39.10;25.40;;;13.60;99.90;;;;;;5074324;28;20205;-74
2022/11/05 14:02:20;;;;;;;36.33;26.27;;;13.60;99.90;;;;;;5074295;28;20227;-73